createdAt,value
2019-03-30T00:00:47.707Z,68.97
2019-03-30T00:03:17.320Z,68.77
2019-03-30T00:05:47.211Z,68.47
2019-03-30T00:08:16.607Z,69.18
2019-03-30T00:10:46.222Z,69.63
2019-03-30T00:13:15.809Z,69.09
2019-03-30T00:15:45.262Z,68.87
2019-03-30T00:18:14.825Z,68.52
2019-03-30T00:20:44.363Z,68.03
2019-03-30T00:23:16.455Z,68.68
2019-03-30T00:25:45.794Z,69.02
2019-03-30T00:28:15.279Z,69.29
2019-03-30T00:30:48.352Z,70.34
2019-03-30T00:33:17.744Z,70.58
2019-03-30T00:35:47.270Z,70.39
2019-03-30T00:38:16.697Z,70.79
2019-03-30T00:40:46.108Z,70.81
2019-03-30T00:43:15.618Z,70.91
2019-03-30T00:45:45.044Z,71.03
2019-03-30T00:48:14.467Z,71.34
2019-03-30T00:50:43.977Z,71.18
2019-03-30T00:53:13.399Z,71.08
2019-03-30T00:55:42.835Z,70.96
2019-03-30T00:58:12.239Z,71.21
2019-03-30T01:00:41.631Z,72.03
2019-03-30T01:03:11.038Z,71.92
2019-03-30T01:05:40.441Z,72.50
2019-03-30T01:08:09.776Z,71.13
2019-03-30T01:10:39.207Z,72.64
2019-03-30T01:13:08.867Z,72.54
2019-03-30T01:15:38.586Z,71.91
2019-03-30T01:18:08.149Z,71.72
2019-03-30T01:20:37.706Z,72.25
2019-03-30T01:23:07.285Z,73.23
2019-03-30T01:25:36.799Z,72.13
2019-03-30T01:28:06.243Z,72.21
2019-03-30T01:30:35.758Z,72.51
2019-03-30T01:33:05.434Z,72.44
2019-03-30T01:35:34.901Z,74.16
2019-03-30T01:38:04.243Z,71.36
2019-03-30T01:40:33.743Z,71.98
2019-03-30T01:43:03.277Z,73.45
2019-03-30T01:45:32.718Z,72.60
2019-03-30T01:48:02.206Z,73.56
2019-03-30T01:50:31.641Z,73.27
2019-03-30T01:53:01.045Z,73.62
2019-03-30T01:55:30.454Z,72.75
2019-03-30T01:57:59.770Z,72.77
2019-03-30T02:00:29.285Z,73.30
2019-03-30T02:02:58.757Z,73.51
2019-03-30T02:05:28.271Z,74.21
2019-03-30T02:07:57.850Z,74.21
2019-03-30T02:10:46.238Z,74.49
2019-03-30T02:13:15.883Z,74.76
2019-03-30T02:15:45.547Z,75.17
2019-03-30T02:18:14.942Z,75.02
2019-03-30T02:20:45.590Z,75.02
2019-03-30T02:23:15.376Z,75.01
2019-03-30T02:25:44.965Z,74.72
2019-03-30T02:28:14.526Z,75.04
2019-03-30T02:30:44.081Z,75.32
2019-03-30T02:33:13.564Z,75.91
2019-03-30T02:35:43.374Z,75.52
2019-03-30T02:38:13.706Z,76.11
2019-03-30T02:40:43.167Z,74.45
2019-03-30T02:43:12.668Z,75.48
2019-03-30T02:45:42.110Z,74.74
2019-03-30T02:48:11.665Z,75.59
2019-03-30T02:50:50.163Z,74.59
2019-03-30T02:53:12.495Z,75.06
2019-03-30T02:55:41.933Z,75.66
2019-03-30T02:58:11.796Z,75.88
2019-03-30T03:00:41.374Z,75.37
2019-03-30T03:03:10.819Z,75.72
2019-03-30T03:05:40.233Z,75.74
2019-03-30T03:08:09.639Z,76.30
2019-03-30T03:10:39.118Z,75.84
2019-03-30T03:13:08.531Z,75.84
2019-03-30T03:15:38.064Z,75.63
2019-03-30T03:18:07.530Z,76.16
2019-03-30T03:20:37.030Z,75.27
2019-03-30T03:23:06.549Z,75.83
2019-03-30T03:25:36.051Z,75.56
2019-03-30T03:28:05.541Z,75.71
2019-03-30T03:30:35.195Z,75.39
2019-03-30T03:33:04.635Z,75.59
2019-03-30T03:35:34.051Z,75.42
2019-03-30T03:38:03.486Z,76.07
2019-03-30T03:40:32.979Z,76.31
2019-03-30T03:43:02.455Z,76.38
2019-03-30T03:45:31.997Z,76.76
2019-03-30T03:48:01.493Z,77.23
2019-03-30T03:51:00.325Z,76.84
2019-03-30T03:53:31.201Z,76.82
2019-03-30T03:56:01.756Z,76.35
2019-03-30T03:58:36.251Z,77.07
2019-03-30T04:01:05.980Z,76.38
2019-03-30T04:03:36.037Z,77.11
2019-03-30T04:06:07.678Z,78.22
2019-03-30T04:08:38.824Z,78.61
2019-03-30T04:11:09.935Z,78.16
2019-03-30T04:13:40.351Z,78.13
2019-03-30T04:16:09.971Z,78.15
2019-03-30T04:18:39.415Z,78.27
2019-03-30T04:21:08.937Z,78.26
2019-03-30T04:23:38.349Z,78.19
2019-03-30T04:26:07.886Z,78.90
2019-03-30T04:28:37.303Z,79.09
2019-03-30T04:31:06.809Z,77.33
2019-03-30T04:33:36.170Z,78.02
2019-03-30T04:36:05.490Z,77.22
2019-03-30T04:38:34.991Z,77.42
2019-03-30T04:41:04.579Z,77.34
2019-03-30T04:43:33.930Z,77.86
2019-03-30T04:46:03.351Z,78.53
2019-03-30T04:48:32.747Z,77.91
2019-03-30T04:51:02.230Z,78.23
2019-03-30T04:53:31.641Z,77.49
2019-03-30T04:56:00.985Z,77.24
2019-03-30T04:58:30.365Z,78.25
2019-03-30T05:00:59.952Z,78.74
2019-03-30T05:03:29.467Z,78.67
2019-03-30T05:05:58.903Z,78.59
2019-03-30T05:08:28.233Z,78.57
2019-03-30T05:10:57.721Z,78.44
2019-03-30T05:13:27.118Z,78.58
2019-03-30T05:15:56.493Z,78.88
2019-03-30T05:18:25.793Z,78.76
2019-03-30T05:20:55.468Z,78.24
2019-03-30T05:23:25.011Z,78.43
2019-03-30T05:25:54.537Z,78.07
2019-03-30T05:28:24.058Z,77.49
2019-03-30T05:30:53.470Z,77.67
2019-03-30T05:33:22.877Z,77.55
2019-03-30T05:35:52.304Z,77.66
2019-03-30T05:38:21.606Z,77.94
2019-03-30T05:40:51.030Z,77.99
2019-03-30T05:43:20.546Z,77.90
2019-03-30T05:45:50.174Z,77.11
2019-03-30T05:48:19.620Z,77.07
2019-03-30T05:50:49.132Z,76.33
2019-03-30T05:53:18.508Z,76.23
2019-03-30T05:55:47.889Z,75.89
2019-03-30T05:58:17.318Z,76.11
2019-03-30T06:00:46.839Z,76.56
2019-03-30T06:03:16.651Z,76.81
2019-03-30T06:05:46.219Z,76.99
2019-03-30T06:08:15.738Z,76.72
2019-03-30T06:10:45.148Z,76.61
2019-03-30T06:13:14.545Z,74.91
2019-03-30T06:15:44.080Z,75.08
2019-03-30T06:18:13.549Z,74.95
2019-03-30T06:20:43.043Z,74.13
2019-03-30T06:23:12.621Z,73.12
2019-03-30T06:25:42.272Z,71.91
2019-03-30T06:28:11.742Z,71.60
2019-03-30T06:30:41.154Z,71.50
2019-03-30T06:33:10.579Z,71.24
2019-03-30T06:35:39.953Z,70.71
2019-03-30T06:38:09.565Z,70.61
2019-03-30T06:40:39.059Z,69.93
2019-03-30T06:43:08.388Z,70.13
2019-03-30T06:45:37.967Z,70.44
2019-03-30T06:48:07.427Z,68.95
2019-03-30T06:50:36.950Z,68.33
2019-03-30T06:53:06.368Z,67.02
2019-03-30T06:55:35.811Z,65.52
2019-03-30T06:58:05.338Z,64.27
2019-03-30T07:00:35.640Z,64.14
2019-03-30T07:03:06.919Z,65.22
2019-03-30T07:05:43.831Z,65.37
2019-03-30T07:08:15.229Z,64.13
2019-03-30T07:10:46.656Z,63.82
2019-03-30T07:13:16.762Z,64.69
2019-03-30T07:15:52.785Z,64.32
2019-03-30T07:18:22.362Z,64.67
2019-03-30T07:20:51.699Z,63.80
2019-03-30T07:23:21.223Z,64.07
2019-03-30T07:25:50.683Z,64.78
2019-03-30T07:28:20.123Z,64.03
2019-03-30T07:30:49.746Z,63.95
2019-03-30T07:33:19.271Z,64.18
2019-03-30T07:35:49.031Z,63.26
2019-03-30T07:38:18.493Z,64.15
2019-03-30T07:40:48.012Z,64.48
2019-03-30T07:43:17.512Z,63.75
2019-03-30T07:45:47.099Z,63.52
2019-03-30T07:48:16.528Z,62.39
2019-03-30T07:50:45.942Z,62.62
2019-03-30T07:53:26.393Z,61.78
2019-03-30T07:55:46.658Z,61.85
2019-03-30T07:58:16.101Z,61.19
2019-03-30T08:00:45.609Z,61.05
2019-03-30T08:03:15.203Z,60.49
2019-03-30T08:05:44.835Z,60.32
2019-03-30T08:08:14.226Z,60.17
2019-03-30T08:10:43.751Z,59.49
2019-03-30T08:13:13.270Z,58.82
2019-03-30T08:15:42.778Z,58.21
2019-03-30T08:18:12.277Z,57.57
2019-03-30T08:20:41.906Z,57.36
2019-03-30T08:23:11.643Z,57.31
2019-03-30T08:25:40.943Z,56.18
2019-03-30T08:28:10.352Z,56.16
2019-03-30T08:30:39.826Z,55.86
2019-03-30T08:33:09.454Z,55.76
2019-03-30T08:35:39.103Z,55.52
2019-03-30T08:38:08.637Z,55.21
2019-03-30T08:40:38.150Z,54.75
2019-03-30T08:43:07.595Z,53.89
2019-03-30T08:45:37.009Z,53.81
2019-03-30T08:48:06.579Z,53.93
2019-03-30T08:50:36.179Z,53.01
2019-03-30T08:53:05.732Z,53.35
2019-03-30T08:55:35.129Z,52.74
2019-03-30T08:58:05.219Z,53.03
2019-03-30T09:00:42.501Z,52.41
2019-03-30T09:03:12.074Z,51.60
2019-03-30T09:05:41.968Z,51.44
2019-03-30T09:08:11.533Z,51.25
2019-03-30T09:10:41.125Z,50.79
2019-03-30T09:13:10.691Z,50.84
2019-03-30T09:15:40.189Z,49.99
2019-03-30T09:18:09.744Z,49.96
2019-03-30T09:20:39.217Z,49.42
2019-03-30T09:23:08.649Z,49.52
2019-03-30T09:25:37.996Z,48.74
2019-03-30T09:28:07.509Z,49.08
2019-03-30T09:30:36.948Z,48.98
2019-03-30T09:33:06.367Z,49.14
2019-03-30T09:35:35.983Z,49.21
2019-03-30T09:38:06.385Z,49.35
2019-03-30T09:40:36.112Z,49.40
2019-03-30T09:43:05.548Z,48.48
2019-03-30T09:45:34.990Z,48.19
2019-03-30T09:48:04.457Z,48.32
2019-03-30T09:50:33.844Z,47.52
2019-03-30T09:53:03.455Z,47.41
2019-03-30T09:55:32.990Z,46.63
2019-03-30T09:58:02.500Z,46.20
2019-03-30T10:00:31.975Z,45.37
2019-03-30T10:03:01.441Z,45.60
2019-03-30T10:05:30.868Z,45.63
2019-03-30T10:08:00.290Z,45.05
2019-03-30T10:10:29.972Z,45.21
2019-03-30T10:13:00.324Z,45.08
2019-03-30T10:15:29.828Z,45.02
2019-03-30T10:17:59.412Z,44.06
2019-03-30T10:20:29.667Z,44.20
2019-03-30T10:22:59.057Z,43.05
2019-03-30T10:25:28.568Z,42.93
2019-03-30T10:27:58.318Z,43.16
2019-03-30T10:30:27.836Z,43.90
2019-03-30T10:32:57.410Z,43.97
2019-03-30T10:35:26.848Z,43.67
2019-03-30T10:37:56.304Z,42.45
2019-03-30T10:40:25.776Z,42.26
2019-03-30T10:42:55.263Z,41.35
2019-03-30T10:45:24.700Z,42.62
2019-03-30T10:47:54.302Z,40.84
2019-03-30T10:50:23.727Z,41.00
2019-03-30T10:52:53.317Z,40.66
2019-03-30T10:55:22.825Z,41.09
2019-03-30T10:57:52.427Z,41.13
2019-03-30T11:00:38.744Z,38.91
2019-03-30T11:03:08.493Z,39.00
2019-03-30T11:05:37.980Z,39.23
2019-03-30T11:08:07.588Z,39.22
2019-03-30T11:10:37.088Z,39.31
2019-03-30T11:13:06.645Z,39.19
2019-03-30T11:15:36.151Z,38.96
2019-03-30T11:18:05.702Z,38.81
2019-03-30T11:20:35.222Z,38.52
2019-03-30T11:23:05.552Z,38.15
2019-03-30T11:25:34.968Z,38.48
2019-03-30T11:28:04.535Z,38.36
2019-03-30T11:30:34.015Z,38.02
2019-03-30T11:33:03.566Z,38.19
2019-03-30T11:35:33.006Z,38.63
2019-03-30T11:38:02.568Z,38.38
2019-03-30T11:40:32.096Z,38.07
2019-03-30T11:43:01.734Z,37.60
2019-03-30T11:45:31.112Z,37.19
2019-03-30T11:48:00.607Z,36.87
2019-03-30T11:50:30.201Z,36.90
2019-03-30T11:52:59.767Z,36.74
2019-03-30T11:55:29.407Z,36.93
2019-03-30T11:57:59.018Z,36.45
2019-03-30T12:00:28.439Z,35.53
2019-03-30T12:02:58.016Z,35.77
2019-03-30T12:05:27.520Z,35.90
2019-03-30T12:07:57.213Z,36.47
2019-03-30T12:10:26.768Z,35.71
2019-03-30T12:12:56.269Z,35.31
2019-03-30T12:15:25.850Z,35.05
2019-03-30T12:17:55.377Z,35.04
2019-03-30T12:20:25.542Z,35.60
2019-03-30T12:22:55.003Z,35.66
2019-03-30T12:25:34.937Z,35.51
2019-03-30T12:27:55.759Z,35.51
2019-03-30T12:30:25.332Z,35.24
2019-03-30T12:32:54.963Z,35.39
2019-03-30T12:35:24.483Z,34.76
2019-03-30T12:37:53.938Z,35.01
2019-03-30T12:40:23.453Z,35.14
2019-03-30T12:42:52.861Z,35.01
2019-03-30T12:45:22.479Z,34.69
2019-03-30T12:47:52.018Z,34.29
2019-03-30T12:50:21.589Z,34.27
2019-03-30T12:52:51.114Z,34.18
2019-03-30T12:55:20.581Z,34.38
2019-03-30T12:57:49.975Z,32.52
2019-03-30T13:00:19.732Z,32.69
2019-03-30T13:02:49.135Z,33.52
2019-03-30T13:05:18.644Z,34.08
2019-03-30T13:07:48.160Z,33.24
2019-03-30T13:10:17.937Z,32.68
2019-03-30T13:12:47.576Z,31.96
2019-03-30T13:15:17.291Z,31.62
2019-03-30T13:17:46.717Z,31.04
2019-03-30T13:20:16.521Z,31.23
2019-03-30T13:22:46.214Z,31.27
2019-03-30T13:25:15.823Z,30.69
2019-03-30T13:27:45.387Z,30.24
2019-03-30T13:30:15.470Z,29.81
2019-03-30T13:32:44.918Z,29.67
2019-03-30T13:35:14.356Z,29.24
2019-03-30T13:37:43.813Z,28.68
2019-03-30T13:40:41.739Z,27.32
2019-03-30T13:43:11.294Z,27.04
2019-03-30T13:45:40.776Z,27.16
2019-03-30T13:48:10.280Z,25.60
2019-03-30T13:50:39.883Z,25.06
2019-03-30T13:53:09.583Z,24.66
2019-03-30T13:55:39.008Z,26.40
2019-03-30T13:58:08.508Z,26.93
2019-03-30T14:00:38.097Z,26.85
2019-03-30T14:03:07.678Z,26.36
2019-03-30T14:05:37.650Z,25.45
2019-03-30T14:08:07.308Z,23.80
2019-03-30T14:10:38.984Z,23.23
2019-03-30T14:13:08.858Z,22.41
2019-03-30T14:15:38.339Z,21.97
2019-03-30T14:18:07.702Z,22.30
2019-03-30T14:20:37.183Z,21.76
2019-03-30T14:23:06.547Z,19.68
2019-03-30T14:25:35.974Z,18.65
2019-03-30T14:28:05.834Z,19.42
2019-03-30T14:30:35.398Z,19.19
2019-03-30T14:33:04.986Z,19.19
2019-03-30T14:35:34.396Z,18.65
2019-03-30T14:38:03.844Z,17.77
2019-03-30T14:40:33.278Z,17.71
2019-03-30T14:43:02.853Z,18.16
2019-03-30T14:45:32.215Z,18.81
2019-03-30T14:48:01.775Z,19.86
2019-03-30T14:50:31.338Z,19.94
2019-03-30T14:53:00.738Z,19.95
2019-03-30T14:55:30.207Z,19.63
2019-03-30T14:57:59.569Z,19.64
2019-03-30T15:00:29.196Z,20.34
2019-03-30T15:02:59.042Z,20.76
2019-03-30T15:05:28.655Z,20.81
2019-03-30T15:07:58.126Z,20.95
2019-03-30T15:10:27.299Z,20.87
2019-03-30T15:12:56.789Z,20.79
2019-03-30T15:15:26.342Z,20.10
2019-03-30T15:17:55.841Z,18.98
2019-03-30T15:20:25.378Z,19.90
2019-03-30T15:22:55.000Z,20.41
2019-03-30T15:25:24.548Z,21.41
2019-03-30T15:27:53.931Z,22.52
2019-03-30T15:30:23.470Z,22.90
2019-03-30T15:32:53.093Z,23.09
2019-03-30T15:35:22.747Z,22.91
2019-03-30T15:37:52.082Z,23.27
2019-03-30T15:40:21.657Z,23.25
2019-03-30T15:42:51.120Z,23.13
2019-03-30T15:45:20.710Z,23.41
2019-03-30T15:47:50.207Z,23.69
2019-03-30T15:50:20.031Z,24.03
2019-03-30T15:52:49.639Z,24.15
2019-03-30T15:55:19.169Z,24.25
2019-03-30T15:57:48.541Z,24.13
2019-03-30T16:00:18.303Z,23.09
2019-03-30T16:02:47.819Z,22.31
2019-03-30T16:05:17.411Z,21.88
2019-03-30T16:07:46.878Z,21.02
2019-03-30T16:10:16.486Z,20.43
2019-03-30T16:12:45.966Z,20.39
2019-03-30T16:15:15.749Z,21.83
2019-03-30T16:17:45.346Z,22.66
2019-03-30T16:20:14.936Z,22.98
2019-03-30T16:22:45.753Z,23.06
2019-03-30T16:25:15.395Z,23.25
2019-03-30T16:27:44.846Z,23.44
2019-03-30T16:30:15.421Z,24.05
2019-03-30T16:32:44.786Z,24.05
2019-03-30T16:35:14.287Z,24.29
2019-03-30T16:37:43.792Z,24.12
2019-03-30T16:40:14.634Z,24.45
2019-03-30T16:42:47.597Z,24.28
2019-03-30T16:45:17.098Z,24.12
2019-03-30T16:47:46.549Z,23.50
2019-03-30T16:50:16.563Z,22.98
2019-03-30T16:52:46.164Z,23.26
2019-03-30T16:55:15.697Z,23.76
2019-03-30T16:57:45.226Z,23.94
2019-03-30T17:00:14.933Z,24.01
2019-03-30T17:02:44.430Z,24.46
2019-03-30T17:05:14.166Z,23.61
2019-03-30T17:07:43.795Z,23.56
2019-03-30T17:10:13.410Z,23.59
2019-03-30T17:12:42.796Z,23.48
2019-03-30T17:15:12.408Z,23.58
2019-03-30T17:17:42.066Z,23.64
2019-03-30T17:20:12.034Z,23.68
2019-03-30T17:22:41.496Z,23.82
2019-03-30T17:25:11.070Z,23.82
2019-03-30T17:27:40.723Z,23.54
2019-03-30T17:30:10.719Z,23.78
2019-03-30T17:32:40.339Z,24.20
2019-03-30T17:35:10.122Z,24.56
2019-03-30T17:37:40.488Z,24.85
2019-03-30T17:40:10.271Z,24.96
2019-03-30T17:42:39.748Z,25.10
2019-03-30T17:45:13.987Z,25.39
2019-03-30T17:47:43.375Z,26.41
2019-03-30T17:50:13.025Z,28.35
2019-03-30T17:52:42.570Z,26.83
2019-03-30T17:55:12.401Z,26.71
2019-03-30T17:57:41.831Z,27.08
2019-03-30T18:00:14.306Z,27.96
2019-03-30T18:02:43.868Z,27.96
2019-03-30T18:05:13.677Z,30.27
2019-03-30T18:07:43.254Z,30.27
2019-03-30T18:10:13.323Z,27.59
2019-03-30T18:12:42.796Z,28.58
2019-03-30T18:15:13.172Z,29.33
2019-03-30T18:17:42.662Z,28.14
2019-03-30T18:20:12.455Z,28.95
2019-03-30T18:22:42.090Z,28.81
2019-03-30T18:25:11.686Z,29.30
2019-03-30T18:27:41.295Z,29.17
2019-03-30T18:30:13.787Z,29.50
2019-03-30T18:32:43.805Z,30.67
2019-03-30T18:35:13.622Z,29.78
2019-03-30T18:37:43.279Z,30.12
2019-03-30T18:40:25.905Z,29.99
2019-03-30T18:42:55.460Z,30.18
2019-03-30T18:45:28.702Z,31.05
2019-03-30T18:48:16.703Z,31.62
2019-03-30T18:50:46.992Z,32.07
2019-03-30T18:53:17.808Z,32.77
2019-03-30T18:55:47.483Z,33.50
2019-03-30T18:58:16.982Z,34.52
2019-03-30T19:00:46.494Z,34.23
2019-03-30T19:03:15.917Z,34.24
2019-03-30T19:05:45.418Z,35.24
2019-03-30T19:08:14.964Z,33.62
2019-03-30T19:10:44.419Z,33.65
2019-03-30T19:13:13.940Z,33.89
2019-03-30T19:15:43.859Z,34.06
2019-03-30T19:18:13.481Z,34.50
2019-03-30T19:20:42.987Z,35.38
2019-03-30T19:23:12.466Z,35.47
2019-03-30T19:25:41.904Z,35.84
2019-03-30T19:28:11.507Z,36.28
2019-03-30T19:30:42.418Z,36.48
2019-03-30T19:33:12.143Z,37.43
2019-03-30T19:35:41.657Z,36.69
2019-03-30T19:38:11.171Z,36.81
2019-03-30T19:40:40.622Z,36.91
2019-03-30T19:43:10.150Z,37.33
2019-03-30T19:45:39.692Z,38.66
2019-03-30T19:48:09.121Z,37.64
2019-03-30T19:50:38.474Z,38.30
2019-03-30T19:53:08.020Z,38.49
2019-03-30T19:55:37.503Z,39.32
2019-03-30T19:58:07.058Z,39.29
2019-03-30T20:00:38.680Z,40.04
2019-03-30T20:03:07.668Z,40.10
2019-03-30T20:05:37.172Z,40.78
2019-03-30T20:08:12.344Z,40.85
2019-03-30T20:10:37.803Z,40.98
2019-03-30T20:13:09.292Z,41.19
2019-03-30T20:15:38.918Z,41.77
2019-03-30T20:18:08.408Z,42.13
2019-03-30T20:20:37.990Z,42.90
2019-03-30T20:23:07.737Z,43.54
2019-03-30T20:25:37.272Z,44.35
2019-03-30T20:28:07.029Z,41.58
2019-03-30T20:30:36.674Z,42.36
2019-03-30T20:33:06.260Z,42.95
2019-03-30T20:35:35.767Z,44.29
2019-03-30T20:38:05.388Z,44.11
2019-03-30T20:40:34.871Z,44.23
2019-03-30T20:43:04.507Z,44.48
2019-03-30T20:45:34.016Z,44.06
2019-03-30T20:48:03.542Z,44.83
2019-03-30T20:50:33.030Z,45.42
2019-03-30T20:53:02.532Z,43.06
2019-03-30T20:55:33.901Z,42.09
2019-03-30T20:58:03.257Z,42.54
2019-03-30T21:00:32.864Z,43.25
2019-03-30T21:03:02.341Z,44.16
2019-03-30T21:05:31.873Z,44.59
2019-03-30T21:08:01.448Z,44.68
2019-03-30T21:10:30.996Z,45.04
2019-03-30T21:13:00.457Z,45.35
2019-03-30T21:15:29.896Z,45.75
2019-03-30T21:17:59.424Z,45.81
2019-03-30T21:20:29.082Z,46.50
2019-03-30T21:22:58.612Z,46.33
2019-03-30T21:25:28.186Z,46.25
2019-03-30T21:27:57.722Z,46.42
2019-03-30T21:30:27.241Z,46.57
2019-03-30T21:32:56.668Z,47.00
2019-03-30T21:35:26.169Z,47.10
2019-03-30T21:37:58.456Z,47.19
2019-03-30T21:40:26.664Z,46.65
2019-03-30T21:42:56.392Z,45.89
2019-03-30T21:45:25.946Z,46.43
2019-03-30T21:47:55.358Z,46.86
2019-03-30T21:50:24.825Z,47.42
2019-03-30T21:52:54.371Z,47.26
2019-03-30T21:55:23.807Z,46.90
2019-03-30T21:57:53.211Z,47.62
2019-03-30T22:00:41.280Z,48.26
2019-03-30T22:03:10.962Z,47.15
2019-03-30T22:05:40.554Z,47.01
2019-03-30T22:08:10.497Z,48.21
2019-03-30T22:10:39.965Z,48.42
2019-03-30T22:13:09.470Z,49.29
2019-03-30T22:15:38.979Z,49.25
2019-03-30T22:18:08.528Z,49.56
2019-03-30T22:20:38.034Z,49.45
2019-03-30T22:23:07.648Z,49.90
2019-03-30T22:25:37.312Z,49.45
2019-03-30T22:28:06.864Z,50.05
2019-03-30T22:30:36.383Z,51.11
2019-03-30T22:33:05.875Z,51.26
2019-03-30T22:35:35.266Z,51.47
2019-03-30T22:38:04.761Z,50.40
2019-03-30T22:40:34.294Z,50.99
2019-03-30T22:43:03.899Z,51.38
2019-03-30T22:45:33.558Z,51.76
2019-03-30T22:48:03.012Z,51.81
2019-03-30T22:50:32.495Z,52.30
2019-03-30T22:53:02.142Z,52.44
2019-03-30T22:55:31.784Z,52.39
2019-03-30T22:58:01.212Z,52.56
2019-03-30T23:00:49.080Z,53.29
2019-03-30T23:03:18.632Z,52.61
2019-03-30T23:05:48.163Z,53.49
2019-03-30T23:08:17.719Z,53.74
2019-03-30T23:10:47.190Z,53.90
2019-03-30T23:13:16.797Z,54.42
2019-03-30T23:15:46.420Z,53.34
2019-03-30T23:18:16.401Z,54.09
2019-03-30T23:20:45.788Z,53.23
2019-03-30T23:23:15.802Z,53.39
2019-03-30T23:25:45.263Z,52.60
2019-03-30T23:28:14.601Z,52.93
2019-03-30T23:30:54.303Z,53.39
2019-03-30T23:33:15.231Z,53.53
2019-03-30T23:35:44.834Z,53.94
2019-03-30T23:38:14.292Z,54.12
2019-03-30T23:40:43.765Z,55.04
2019-03-30T23:43:13.296Z,56.07
2019-03-30T23:45:42.633Z,56.65
2019-03-30T23:48:12.116Z,57.89
2019-03-30T23:50:41.616Z,58.12
2019-03-30T23:53:11.055Z,58.45
2019-03-30T23:55:40.649Z,59.39
2019-03-30T23:58:10.206Z,59.77
